createdAt,value
2023-04-29T00:01:59.297Z,11.00
2023-04-29T00:05:05.465Z,11.90
2023-04-29T00:08:09.798Z,11.90
2023-04-29T00:11:13.821Z,10.00
2023-04-29T00:14:17.923Z,10.60
2023-04-29T00:17:21.876Z,9.70
2023-04-29T00:20:25.978Z,10.00
2023-04-29T00:23:29.882Z,10.80
2023-04-29T00:26:35.019Z,11.00
2023-04-29T00:29:38.980Z,11.80
2023-04-29T00:32:44.726Z,11.90
2023-04-29T00:35:48.912Z,11.90
2023-04-29T00:38:53.153Z,11.80
2023-04-29T00:41:57.154Z,10.70
2023-04-29T00:45:01.164Z,10.20
2023-04-29T00:48:05.260Z,10.50
2023-04-29T00:51:10.233Z,10.40
2023-04-29T00:54:14.333Z,9.60
2023-04-29T00:57:19.997Z,9.80
2023-04-29T01:00:26.383Z,9.80
2023-04-29T01:03:32.651Z,10.40
2023-04-29T01:06:58.571Z,10.50
2023-04-29T01:10:22.780Z,11.50
2023-04-29T01:13:40.489Z,10.10
2023-04-29T01:16:55.546Z,10.90
2023-04-29T01:20:00.969Z,9.10
2023-04-29T01:23:05.049Z,8.20
2023-04-29T01:26:09.344Z,11.00
2023-04-29T01:29:46.264Z,7.70
2023-04-29T01:33:03.473Z,9.80
2023-04-29T01:36:20.685Z,12.40
2023-04-29T01:39:46.011Z,11.40
2023-04-29T01:43:02.003Z,11.60
2023-04-29T01:49:13.925Z,10.60
2023-04-29T01:52:18.169Z,10.10
2023-04-29T01:55:29.633Z,9.10
2023-04-29T01:58:47.989Z,10.90
2023-04-29T02:05:18.432Z,8.50
2023-04-29T02:08:29.374Z,9.20
2023-04-29T02:11:33.542Z,9.70
2023-04-29T02:14:38.998Z,10.50
2023-04-29T02:17:43.444Z,8.80
2023-04-29T02:20:49.982Z,8.20
2023-04-29T02:23:54.637Z,8.20
2023-04-29T02:27:00.692Z,8.50
2023-04-29T02:30:06.404Z,9.10
2023-04-29T02:33:10.508Z,8.50
2023-04-29T02:36:14.586Z,9.40
2023-04-29T02:39:20.143Z,8.60
2023-04-29T02:42:24.271Z,6.60
2023-04-29T02:45:28.205Z,8.60
2023-04-29T02:48:32.185Z,9.00
2023-04-29T02:51:36.122Z,7.40
2023-04-29T02:54:40.221Z,8.40
2023-04-29T02:57:44.531Z,8.60
2023-04-29T03:00:48.553Z,8.20
2023-04-29T03:03:52.859Z,9.30
2023-04-29T03:06:57.095Z,7.80
2023-04-29T03:10:03.014Z,5.30
2023-04-29T03:13:07.687Z,6.00
2023-04-29T03:16:17.009Z,5.00
2023-04-29T03:19:21.398Z,7.50
2023-04-29T03:22:26.889Z,7.50
2023-04-29T03:25:31.325Z,8.20
2023-04-29T03:28:35.299Z,9.00
2023-04-29T03:31:39.333Z,9.40
2023-04-29T03:34:43.575Z,8.30
2023-04-29T03:38:07.867Z,7.20
2023-04-29T03:41:12.701Z,7.70
2023-04-29T03:44:16.734Z,6.90
2023-04-29T03:47:20.635Z,5.50
2023-04-29T03:50:26.276Z,6.40
2023-04-29T03:53:30.916Z,6.30
2023-04-29T03:56:34.917Z,7.40
2023-04-29T03:59:38.946Z,5.90
2023-04-29T04:02:43.119Z,6.30
2023-04-29T04:08:52.420Z,6.30
2023-04-29T04:12:01.695Z,6.70
2023-04-29T04:15:06.879Z,6.20
2023-04-29T04:18:10.811Z,6.90
2023-04-29T04:21:15.819Z,6.90
2023-04-29T04:24:23.369Z,6.50
2023-04-29T04:27:27.554Z,6.20
2023-04-29T04:30:36.078Z,5.90
2023-04-29T04:33:41.007Z,6.30
2023-04-29T04:39:50.052Z,5.30
2023-04-29T04:42:55.623Z,4.40
2023-04-29T04:49:05.812Z,5.90
2023-04-29T04:52:12.092Z,5.50
2023-04-29T04:55:16.305Z,4.70
2023-04-29T04:58:22.176Z,4.70
2023-04-29T05:01:26.348Z,4.60
2023-04-29T05:04:30.558Z,5.20
2023-04-29T05:07:37.711Z,6.60
2023-04-29T05:10:42.375Z,5.30
2023-04-29T05:13:48.717Z,6.10
2023-04-29T05:16:53.283Z,6.50
2023-04-29T05:19:57.666Z,5.40
2023-04-29T05:23:02.720Z,5.10
2023-04-29T05:26:09.869Z,5.30
2023-04-29T05:29:14.015Z,5.60
2023-04-29T05:32:31.658Z,5.40
2023-04-29T05:35:35.741Z,5.10
2023-04-29T05:38:40.065Z,5.10
2023-04-29T05:41:46.046Z,5.30
2023-04-29T05:45:09.798Z,5.10
2023-04-29T05:48:14.096Z,4.30
2023-04-29T05:51:18.164Z,4.40
2023-04-29T05:54:22.180Z,4.10
2023-04-29T05:57:26.195Z,4.50
2023-04-29T06:00:31.956Z,4.10
2023-04-29T06:03:38.445Z,4.40
2023-04-29T06:07:06.015Z,4.50
2023-04-29T06:10:26.088Z,4.50
2023-04-29T06:13:31.026Z,3.40
2023-04-29T06:16:35.091Z,4.10
2023-04-29T06:19:39.260Z,4.30
2023-04-29T06:22:43.171Z,4.40
2023-04-29T06:25:47.378Z,4.50
2023-04-29T06:28:51.610Z,3.60
2023-04-29T06:31:56.382Z,3.50
2023-04-29T06:35:01.322Z,3.80
2023-04-29T06:38:24.024Z,3.70
2023-04-29T06:41:46.684Z,3.40
2023-04-29T06:45:10.043Z,3.30
2023-04-29T06:48:23.057Z,4.00
2023-04-29T06:54:32.007Z,3.40
2023-04-29T06:57:36.990Z,3.80
2023-04-29T07:00:41.099Z,3.70
2023-04-29T07:03:45.356Z,3.30
2023-04-29T07:06:49.561Z,3.10
2023-04-29T07:09:54.606Z,3.60
2023-04-29T07:13:00.547Z,4.20
2023-04-29T07:16:05.125Z,3.30
2023-04-29T07:19:09.073Z,3.50
2023-04-29T07:22:13.161Z,3.30
2023-04-29T07:25:17.124Z,3.60
2023-04-29T07:28:21.236Z,3.00
2023-04-29T07:31:25.330Z,3.30
2023-04-29T07:34:29.586Z,3.40
2023-04-29T07:37:33.793Z,4.00
2023-04-29T07:40:37.695Z,3.20
2023-04-29T07:43:42.619Z,3.50
2023-04-29T07:46:46.898Z,4.00
2023-04-29T07:49:51.705Z,3.30
2023-04-29T07:56:06.585Z,2.80
2023-04-29T07:59:10.696Z,3.00
2023-04-29T08:02:16.808Z,4.10
2023-04-29T08:05:22.599Z,3.10
2023-04-29T08:08:26.927Z,4.40
2023-04-29T08:11:30.968Z,3.60
2023-04-29T08:14:34.980Z,3.10
2023-04-29T08:17:39.050Z,3.10
2023-04-29T08:20:43.133Z,3.10
2023-04-29T08:23:47.231Z,2.80
2023-04-29T08:26:52.576Z,3.60
2023-04-29T08:29:56.697Z,3.50
2023-04-29T08:33:00.938Z,3.00
2023-04-29T08:36:06.086Z,2.90
2023-04-29T08:39:10.408Z,3.20
2023-04-29T08:42:14.387Z,4.20
2023-04-29T08:45:20.372Z,3.20
2023-04-29T08:48:26.763Z,2.90
2023-04-29T08:51:32.360Z,3.20
2023-04-29T08:54:36.381Z,3.40
2023-04-29T08:57:42.163Z,2.90
2023-04-29T09:00:46.576Z,3.30
2023-04-29T09:04:25.738Z,3.80
2023-04-29T09:07:32.096Z,3.60
2023-04-29T09:10:37.943Z,3.30
2023-04-29T09:13:41.913Z,4.00
2023-04-29T09:16:48.921Z,3.40
2023-04-29T09:19:52.957Z,2.90
2023-04-29T09:22:59.982Z,3.70
2023-04-29T09:26:04.061Z,3.50
2023-04-29T09:29:09.230Z,3.30
2023-04-29T09:32:19.971Z,3.20
2023-04-29T09:35:28.305Z,3.40
2023-04-29T09:38:32.374Z,3.40
2023-04-29T09:41:36.353Z,3.30
2023-04-29T09:44:42.559Z,2.70
2023-04-29T09:47:46.839Z,3.20
2023-04-29T09:51:02.295Z,3.20
2023-04-29T09:54:22.017Z,2.80
2023-04-29T09:57:42.630Z,3.00
2023-04-29T10:00:48.764Z,3.00
2023-04-29T10:03:55.627Z,3.00
2023-04-29T10:07:01.183Z,3.00
2023-04-29T10:10:06.494Z,2.80
2023-04-29T10:13:10.538Z,3.00
2023-04-29T10:16:31.438Z,2.20
2023-04-29T10:19:45.799Z,2.50
2023-04-29T10:22:52.164Z,2.50
2023-04-29T10:26:00.114Z,3.40
2023-04-29T10:29:05.530Z,2.40
2023-04-29T10:32:10.989Z,3.00
2023-04-29T10:35:16.758Z,2.80
2023-04-29T10:38:26.724Z,2.80
2023-04-29T10:41:37.266Z,2.50
2023-04-29T10:45:18.688Z,2.90
2023-04-29T10:48:24.748Z,3.40
2023-04-29T10:51:48.950Z,2.90
2023-04-29T10:55:03.987Z,2.90
2023-04-29T10:58:46.169Z,2.80
2023-04-29T11:01:52.276Z,2.40
2023-04-29T11:05:10.668Z,2.80
2023-04-29T11:08:24.317Z,2.30
2023-04-29T11:11:58.413Z,2.80
2023-04-29T11:15:05.125Z,2.80
2023-04-29T11:18:11.638Z,3.40
2023-04-29T11:21:15.776Z,3.30
2023-04-29T11:24:19.934Z,3.00
2023-04-29T11:27:26.798Z,3.30
2023-04-29T11:30:32.092Z,2.70
2023-04-29T11:33:36.404Z,2.60
2023-04-29T11:36:40.653Z,3.30
2023-04-29T11:39:44.693Z,3.00
2023-04-29T11:42:49.752Z,2.80
2023-04-29T11:45:54.338Z,2.70
2023-04-29T11:49:00.313Z,2.80
2023-04-29T11:52:04.565Z,3.20
2023-04-29T11:55:12.057Z,3.20
2023-04-29T11:58:16.868Z,2.80
2023-04-29T12:01:21.691Z,3.20
2023-04-29T12:04:26.272Z,2.90
2023-04-29T12:07:30.453Z,3.00
2023-04-29T12:10:36.933Z,3.00
2023-04-29T12:13:41.564Z,3.20
2023-04-29T12:16:46.486Z,2.70
2023-04-29T12:19:51.741Z,3.90
2023-04-29T12:22:55.940Z,3.20
2023-04-29T12:26:01.028Z,3.60
2023-04-29T12:29:05.211Z,2.60
2023-04-29T12:32:16.813Z,2.80
2023-04-29T12:35:22.048Z,3.00
2023-04-29T12:38:28.311Z,3.10
2023-04-29T12:41:42.404Z,3.20
2023-04-29T12:44:47.794Z,3.10
2023-04-29T12:47:52.174Z,3.30
2023-04-29T12:54:04.297Z,3.10
2023-04-29T12:57:10.113Z,3.10
2023-04-29T13:00:15.697Z,3.30
2023-04-29T13:03:22.181Z,2.70
2023-04-29T13:06:27.407Z,3.50
2023-04-29T13:09:31.620Z,3.00
2023-04-29T13:12:35.730Z,3.20
2023-04-29T13:15:39.758Z,3.50
2023-04-29T13:18:53.668Z,3.10
2023-04-29T13:22:07.890Z,3.10
2023-04-29T13:25:12.416Z,2.80
2023-04-29T13:31:21.261Z,3.10
2023-04-29T13:34:25.364Z,3.30
2023-04-29T13:37:29.381Z,3.90
2023-04-29T13:40:38.369Z,3.40
2023-04-29T13:43:43.634Z,3.50
2023-04-29T13:46:48.015Z,2.50
2023-04-29T13:53:23.641Z,3.60
2023-04-29T14:02:39.821Z,3.30
2023-04-29T14:08:48.645Z,2.90
2023-04-29T14:11:52.678Z,3.60
2023-04-29T14:14:59.481Z,2.60
2023-04-29T14:18:04.418Z,2.90
2023-04-29T14:21:08.926Z,3.30
2023-04-29T14:24:13.439Z,3.00
2023-04-29T14:30:21.685Z,2.80
2023-04-29T14:36:29.644Z,2.80
2023-04-29T14:39:33.621Z,3.00
2023-04-29T14:42:37.736Z,3.10
2023-04-29T14:45:42.191Z,3.50
2023-04-29T14:51:50.277Z,2.80
2023-04-29T14:54:54.647Z,3.60
2023-04-29T14:57:58.842Z,2.70
2023-04-29T15:01:02.853Z,3.30
2023-04-29T15:04:07.493Z,2.80
2023-04-29T15:07:15.824Z,3.10
2023-04-29T15:10:19.803Z,3.70
2023-04-29T15:13:23.821Z,3.10
2023-04-29T15:16:28.740Z,3.10
2023-04-29T15:19:32.893Z,3.10
2023-04-29T15:22:37.095Z,3.10
2023-04-29T15:25:40.991Z,2.90
2023-04-29T15:28:46.166Z,2.60
2023-04-29T15:31:50.254Z,3.10
2023-04-29T15:34:55.634Z,3.20
2023-04-29T15:37:59.657Z,3.80
2023-04-29T15:41:04.117Z,3.90
2023-04-29T15:47:12.103Z,3.30
2023-04-29T15:50:16.428Z,3.90
2023-04-29T15:56:25.564Z,3.20
2023-04-29T15:59:30.583Z,3.30
2023-04-29T16:02:34.701Z,3.50
2023-04-29T16:05:38.866Z,3.40
2023-04-29T16:08:42.776Z,3.10
2023-04-29T16:11:47.099Z,3.90
2023-04-29T16:14:51.544Z,3.90
2023-04-29T16:20:59.682Z,3.60
2023-04-29T16:24:03.757Z,3.60
2023-04-29T16:27:07.667Z,3.60
2023-04-29T16:30:12.140Z,3.60
2023-04-29T16:33:16.501Z,3.80
2023-04-29T16:36:20.563Z,4.20
2023-04-29T16:39:24.571Z,4.30
2023-04-29T16:42:28.591Z,4.10
2023-04-29T16:45:32.837Z,4.70
2023-04-29T16:48:36.845Z,4.90
2023-04-29T16:51:40.948Z,4.50
2023-04-29T16:54:44.864Z,5.00
2023-04-29T16:57:48.811Z,4.60
2023-04-29T17:00:53.805Z,5.00
2023-04-29T17:03:58.065Z,4.70
2023-04-29T17:07:03.056Z,10.50
2023-04-29T17:10:08.284Z,4.30
2023-04-29T17:13:12.182Z,4.40
2023-04-29T17:16:17.069Z,5.20
2023-04-29T17:19:21.181Z,5.20
2023-04-29T17:22:25.200Z,4.30
2023-04-29T17:25:29.149Z,5.20
2023-04-29T17:28:33.140Z,4.50
2023-04-29T17:31:48.108Z,4.70
2023-04-29T17:34:53.245Z,5.10
2023-04-29T17:37:57.361Z,5.00
2023-04-29T17:41:02.331Z,5.80
2023-04-29T17:44:08.042Z,5.70
2023-04-29T17:47:12.801Z,6.00
2023-04-29T17:50:17.017Z,5.70
2023-04-29T17:53:21.012Z,6.40
2023-04-29T17:56:26.357Z,5.00
2023-04-29T17:59:30.895Z,4.70
2023-04-29T18:02:34.996Z,5.90
2023-04-29T18:05:39.336Z,5.60
2023-04-29T18:08:43.330Z,6.30
2023-04-29T18:11:47.463Z,5.20
2023-04-29T18:14:52.043Z,5.40
2023-04-29T18:17:56.133Z,6.80
2023-04-29T18:21:00.137Z,6.80
2023-04-29T18:24:04.241Z,6.00
2023-04-29T18:27:08.287Z,5.90
2023-04-29T18:30:13.292Z,6.90
2023-04-29T18:33:17.398Z,6.40
2023-04-29T18:36:21.633Z,6.00
2023-04-29T18:39:25.661Z,6.60
2023-04-29T18:42:30.742Z,6.40
2023-04-29T18:45:35.119Z,7.70
2023-04-29T18:48:40.591Z,8.30
2023-04-29T18:51:47.990Z,10.00
2023-04-29T18:54:52.391Z,10.60
2023-04-29T18:57:56.498Z,9.80
2023-04-29T19:01:02.700Z,9.40
2023-04-29T19:04:08.620Z,7.20
2023-04-29T19:07:13.858Z,7.00
2023-04-29T19:10:17.895Z,6.90
2023-04-29T19:13:22.127Z,7.10
2023-04-29T19:16:26.683Z,10.00
2023-04-29T19:19:30.967Z,12.00
2023-04-29T19:22:34.982Z,15.50
2023-04-29T19:25:39.311Z,11.60
2023-04-29T19:28:43.336Z,11.90
2023-04-29T19:31:47.376Z,12.80
2023-04-29T19:34:51.438Z,16.10
2023-04-29T19:37:55.568Z,21.50
2023-04-29T19:40:59.493Z,24.00
2023-04-29T19:44:03.505Z,24.90
2023-04-29T19:47:07.477Z,25.50
2023-04-29T19:50:11.490Z,26.60
2023-04-29T19:53:15.471Z,27.40
2023-04-29T19:56:20.069Z,28.90
2023-04-29T20:02:28.021Z,24.10
2023-04-29T20:05:32.212Z,25.00
2023-04-29T20:08:37.301Z,22.10
2023-04-29T20:11:41.293Z,22.60
2023-04-29T20:14:45.709Z,22.50
2023-04-29T20:17:49.759Z,20.80
2023-04-29T20:20:53.748Z,22.20
2023-04-29T20:23:57.675Z,21.10
2023-04-29T20:27:01.665Z,20.40
2023-04-29T20:30:06.575Z,19.90
2023-04-29T20:33:10.605Z,20.60
2023-04-29T20:36:14.557Z,25.10
2023-04-29T20:39:18.758Z,24.30
2023-04-29T20:42:22.682Z,22.10
2023-04-29T20:45:26.790Z,26.50
2023-04-29T20:48:30.902Z,26.50
2023-04-29T20:51:34.921Z,27.70
2023-04-29T20:54:39.179Z,27.10
2023-04-29T20:57:43.141Z,22.80
2023-04-29T21:00:47.052Z,21.60
2023-04-29T21:03:52.212Z,19.90
2023-04-29T21:06:56.231Z,19.70
2023-04-29T21:10:00.193Z,18.60
2023-04-29T21:13:04.370Z,18.00
2023-04-29T21:16:08.546Z,17.00
2023-04-29T21:19:12.585Z,18.10
2023-04-29T21:22:16.523Z,18.60
2023-04-29T21:25:20.531Z,20.70
2023-04-29T21:28:24.553Z,19.20
2023-04-29T21:31:30.260Z,19.80
2023-04-29T21:34:35.454Z,20.40
2023-04-29T21:37:39.466Z,17.90
2023-04-29T21:40:46.631Z,18.50
2023-04-29T21:43:50.998Z,18.30
2023-04-29T21:46:55.228Z,21.00
2023-04-29T21:49:59.403Z,22.70
2023-04-29T21:53:03.610Z,21.10
2023-04-29T21:56:07.937Z,20.80
2023-04-29T21:59:11.820Z,16.60
2023-04-29T22:02:22.393Z,19.00
2023-04-29T22:05:26.982Z,17.10
2023-04-29T22:08:30.937Z,17.10
2023-04-29T22:11:35.005Z,15.50
2023-04-29T22:14:39.011Z,16.60
2023-04-29T22:17:43.102Z,16.30
2023-04-29T22:20:47.232Z,15.20
2023-04-29T22:23:51.269Z,15.10
2023-04-29T22:26:55.405Z,14.70
2023-04-29T22:29:59.577Z,15.40
2023-04-29T22:33:03.655Z,13.90
2023-04-29T22:36:07.840Z,13.90
2023-04-29T22:39:11.964Z,15.10
2023-04-29T22:42:15.874Z,15.30
2023-04-29T22:45:19.824Z,16.20
2023-04-29T22:48:26.578Z,14.10
2023-04-29T22:51:32.325Z,14.30
2023-04-29T22:54:36.337Z,13.90
2023-04-29T22:57:40.465Z,14.30
2023-04-29T23:00:52.870Z,12.50
2023-04-29T23:03:56.989Z,11.50
2023-04-29T23:07:00.902Z,11.00
2023-04-29T23:10:05.923Z,11.30
2023-04-29T23:13:09.866Z,11.40
2023-04-29T23:16:13.925Z,12.50
2023-04-29T23:19:17.943Z,12.50
2023-04-29T23:22:21.876Z,12.00
2023-04-29T23:25:26.126Z,11.40
2023-04-29T23:28:30.178Z,10.00
2023-04-29T23:31:34.251Z,11.50
2023-04-29T23:34:38.214Z,11.90
2023-04-29T23:37:42.248Z,10.50
2023-04-29T23:40:47.078Z,11.60
2023-04-29T23:43:51.042Z,10.60
2023-04-29T23:46:55.058Z,11.80
2023-04-29T23:49:58.958Z,11.90
2023-04-29T23:53:03.184Z,10.20
2023-04-29T23:56:08.068Z,11.90
2023-04-29T23:59:12.035Z,10.30
